sensor_id;sensor_type;location;lat;lon;timestamp;P1;durP1;ratioP1;P2;durP2;ratioP2
26696;SDS011;14312;52.614;13.496;2023-08-06T00:00:49;2.63;;;2.42;;
26696;SDS011;14312;52.614;13.496;2023-08-06T00:03:34;2.67;;;2.42;;
26696;SDS011;14312;52.614;13.496;2023-08-06T00:06:20;2.78;;;2.58;;
26696;SDS011;14312;52.614;13.496;2023-08-06T00:09:06;2.50;;;2.30;;
26696;SDS011;14312;52.614;13.496;2023-08-06T00:11:52;2.65;;;2.45;;
26696;SDS011;14312;52.614;13.496;2023-08-06T00:14:38;2.58;;;2.38;;
26696;SDS011;14312;52.614;13.496;2023-08-06T00:17:24;2.95;;;2.40;;
26696;SDS011;14312;52.614;13.496;2023-08-06T00:20:10;2.53;;;2.35;;
26696;SDS011;14312;52.614;13.496;2023-08-06T00:22:56;2.80;;;2.60;;
26696;SDS011;14312;52.614;13.496;2023-08-06T00:25:41;2.42;;;2.22;;
26696;SDS011;14312;52.614;13.496;2023-08-06T00:28:27;2.80;;;2.60;;
26696;SDS011;14312;52.614;13.496;2023-08-06T00:31:16;2.80;;;2.60;;
26696;SDS011;14312;52.614;13.496;2023-08-06T00:34:02;2.78;;;2.58;;
26696;SDS011;14312;52.614;13.496;2023-08-06T00:36:48;2.40;;;2.25;;
26696;SDS011;14312;52.614;13.496;2023-08-06T00:39:34;3.28;;;2.67;;
26696;SDS011;14312;52.614;13.496;2023-08-06T00:42:20;2.70;;;2.50;;
26696;SDS011;14312;52.614;13.496;2023-08-06T00:45:06;2.83;;;2.63;;
26696;SDS011;14312;52.614;13.496;2023-08-06T00:47:52;2.65;;;2.45;;
26696;SDS011;14312;52.614;13.496;2023-08-06T00:50:39;2.65;;;2.45;;
26696;SDS011;14312;52.614;13.496;2023-08-06T00:53:25;2.38;;;2.17;;
26696;SDS011;14312;52.614;13.496;2023-08-06T00:56:11;2.70;;;2.50;;
26696;SDS011;14312;52.614;13.496;2023-08-06T00:58:58;3.00;;;2.80;;
26696;SDS011;14312;52.614;13.496;2023-08-06T01:01:44;2.67;;;2.47;;
26696;SDS011;14312;52.614;13.496;2023-08-06T01:04:31;2.63;;;2.42;;
26696;SDS011;14312;52.614;13.496;2023-08-06T01:07:41;2.70;;;2.50;;
26696;SDS011;14312;52.614;13.496;2023-08-06T01:10:44;2.90;;;2.70;;
26696;SDS011;14312;52.614;13.496;2023-08-06T01:13:59;2.33;;;2.22;;
26696;SDS011;14312;52.614;13.496;2023-08-06T01:16:52;2.80;;;2.60;;
26696;SDS011;14312;52.614;13.496;2023-08-06T01:19:39;2.60;;;2.40;;
26696;SDS011;14312;52.614;13.496;2023-08-06T01:22:25;2.78;;;2.58;;
26696;SDS011;14312;52.614;13.496;2023-08-06T01:25:11;2.60;;;2.40;;
26696;SDS011;14312;52.614;13.496;2023-08-06T01:28:10;2.55;;;2.35;;
26696;SDS011;14312;52.614;13.496;2023-08-06T01:31:04;2.70;;;2.50;;
26696;SDS011;14312;52.614;13.496;2023-08-06T01:33:56;2.88;;;2.67;;
26696;SDS011;14312;52.614;13.496;2023-08-06T01:36:44;2.60;;;2.40;;
26696;SDS011;14312;52.614;13.496;2023-08-06T01:39:32;2.90;;;2.42;;
26696;SDS011;14312;52.614;13.496;2023-08-06T01:42:19;2.63;;;2.42;;
26696;SDS011;14312;52.614;13.496;2023-08-06T01:45:05;3.00;;;2.70;;
26696;SDS011;14312;52.614;13.496;2023-08-06T01:47:52;2.75;;;2.55;;
26696;SDS011;14312;52.614;13.496;2023-08-06T01:50:38;2.50;;;2.38;;
26696;SDS011;14312;52.614;13.496;2023-08-06T01:53:24;2.67;;;2.50;;
26696;SDS011;14312;52.614;13.496;2023-08-06T01:56:10;3.08;;;2.88;;
26696;SDS011;14312;52.614;13.496;2023-08-06T01:58:56;2.65;;;2.50;;
26696;SDS011;14312;52.614;13.496;2023-08-06T02:01:42;2.95;;;2.75;;
26696;SDS011;14312;52.614;13.496;2023-08-06T02:04:28;2.88;;;2.67;;
26696;SDS011;14312;52.614;13.496;2023-08-06T02:07:14;3.00;;;2.80;;
26696;SDS011;14312;52.614;13.496;2023-08-06T02:09:59;3.08;;;2.78;;
26696;SDS011;14312;52.614;13.496;2023-08-06T02:12:45;3.03;;;2.83;;
26696;SDS011;14312;52.614;13.496;2023-08-06T02:15:31;3.15;;;2.85;;
26696;SDS011;14312;52.614;13.496;2023-08-06T02:18:17;3.40;;;2.90;;
26696;SDS011;14312;52.614;13.496;2023-08-06T02:21:03;2.92;;;2.72;;
26696;SDS011;14312;52.614;13.496;2023-08-06T02:23:49;3.17;;;2.90;;
26696;SDS011;14312;52.614;13.496;2023-08-06T02:26:35;2.97;;;2.78;;
26696;SDS011;14312;52.614;13.496;2023-08-06T02:29:21;3.10;;;2.90;;
26696;SDS011;14312;52.614;13.496;2023-08-06T02:32:07;2.88;;;2.67;;
26696;SDS011;14312;52.614;13.496;2023-08-06T02:34:53;2.90;;;2.70;;
26696;SDS011;14312;52.614;13.496;2023-08-06T02:37:39;2.70;;;2.55;;
26696;SDS011;14312;52.614;13.496;2023-08-06T02:40:25;2.92;;;2.72;;
26696;SDS011;14312;52.614;13.496;2023-08-06T02:43:11;3.22;;;2.92;;
26696;SDS011;14312;52.614;13.496;2023-08-06T02:45:57;2.85;;;2.65;;
26696;SDS011;14312;52.614;13.496;2023-08-06T02:48:44;2.88;;;2.67;;
26696;SDS011;14312;52.614;13.496;2023-08-06T02:51:30;2.83;;;2.63;;
26696;SDS011;14312;52.614;13.496;2023-08-06T02:54:16;3.20;;;3.00;;
26696;SDS011;14312;52.614;13.496;2023-08-06T02:57:02;3.13;;;2.92;;
26696;SDS011;14312;52.614;13.496;2023-08-06T02:59:48;3.22;;;3.03;;
26696;SDS011;14312;52.614;13.496;2023-08-06T03:02:34;2.65;;;2.45;;
26696;SDS011;14312;52.614;13.496;2023-08-06T03:05:20;2.78;;;2.58;;
26696;SDS011;14312;52.614;13.496;2023-08-06T03:08:06;2.80;;;2.60;;
26696;SDS011;14312;52.614;13.496;2023-08-06T03:10:52;2.60;;;2.40;;
26696;SDS011;14312;52.614;13.496;2023-08-06T03:13:38;2.55;;;2.35;;
26696;SDS011;14312;52.614;13.496;2023-08-06T03:16:23;2.40;;;2.20;;
26696;SDS011;14312;52.614;13.496;2023-08-06T03:19:09;2.90;;;2.70;;
26696;SDS011;14312;52.614;13.496;2023-08-06T03:21:55;2.85;;;2.65;;
26696;SDS011;14312;52.614;13.496;2023-08-06T03:24:41;2.70;;;2.50;;
26696;SDS011;14312;52.614;13.496;2023-08-06T03:27:27;2.90;;;2.70;;
26696;SDS011;14312;52.614;13.496;2023-08-06T03:30:13;3.10;;;2.88;;
26696;SDS011;14312;52.614;13.496;2023-08-06T03:32:59;2.50;;;2.30;;
26696;SDS011;14312;52.614;13.496;2023-08-06T03:35:45;2.30;;;2.20;;
26696;SDS011;14312;52.614;13.496;2023-08-06T03:38:31;2.40;;;2.25;;
26696;SDS011;14312;52.614;13.496;2023-08-06T03:41:17;2.53;;;2.33;;
26696;SDS011;14312;52.614;13.496;2023-08-06T03:44:02;2.53;;;2.33;;
26696;SDS011;14312;52.614;13.496;2023-08-06T03:46:49;2.25;;;2.15;;
26696;SDS011;14312;52.614;13.496;2023-08-06T03:49:35;2.70;;;2.50;;
26696;SDS011;14312;52.614;13.496;2023-08-06T03:52:21;2.20;;;2.10;;
26696;SDS011;14312;52.614;13.496;2023-08-06T03:55:07;2.42;;;2.22;;
26696;SDS011;14312;52.614;13.496;2023-08-06T03:57:53;2.65;;;2.45;;
26696;SDS011;14312;52.614;13.496;2023-08-06T04:00:39;2.70;;;2.50;;
26696;SDS011;14312;52.614;13.496;2023-08-06T04:03:25;2.50;;;2.30;;
26696;SDS011;14312;52.614;13.496;2023-08-06T04:06:11;2.47;;;2.28;;
26696;SDS011;14312;52.614;13.496;2023-08-06T04:08:57;2.42;;;2.22;;
26696;SDS011;14312;52.614;13.496;2023-08-06T04:11:43;2.40;;;2.20;;
26696;SDS011;14312;52.614;13.496;2023-08-06T04:14:29;2.53;;;2.33;;
26696;SDS011;14312;52.614;13.496;2023-08-06T04:17:15;2.50;;;2.30;;
26696;SDS011;14312;52.614;13.496;2023-08-06T04:20:01;2.33;;;2.10;;
26696;SDS011;14312;52.614;13.496;2023-08-06T04:22:47;2.45;;;2.33;;
26696;SDS011;14312;52.614;13.496;2023-08-06T04:25:33;2.70;;;2.50;;
26696;SDS011;14312;52.614;13.496;2023-08-06T04:28:19;2.60;;;2.40;;
26696;SDS011;14312;52.614;13.496;2023-08-06T04:31:05;2.28;;;2.10;;
26696;SDS011;14312;52.614;13.496;2023-08-06T04:33:51;2.58;;;2.40;;
26696;SDS011;14312;52.614;13.496;2023-08-06T04:36:37;2.35;;;2.25;;
26696;SDS011;14312;52.614;13.496;2023-08-06T04:39:24;2.17;;;2.08;;
26696;SDS011;14312;52.614;13.496;2023-08-06T04:42:10;2.20;;;2.00;;
26696;SDS011;14312;52.614;13.496;2023-08-06T04:44:56;2.20;;;2.10;;
26696;SDS011;14312;52.614;13.496;2023-08-06T04:47:42;2.13;;;2.03;;
26696;SDS011;14312;52.614;13.496;2023-08-06T04:50:28;2.00;;;1.90;;
26696;SDS011;14312;52.614;13.496;2023-08-06T04:53:14;2.28;;;2.17;;
26696;SDS011;14312;52.614;13.496;2023-08-06T04:56:00;2.33;;;2.17;;
26696;SDS011;14312;52.614;13.496;2023-08-06T04:58:46;1.98;;;1.88;;
26696;SDS011;14312;52.614;13.496;2023-08-06T05:01:32;2.33;;;2.20;;
26696;SDS011;14312;52.614;13.496;2023-08-06T05:04:18;2.00;;;1.90;;
26696;SDS011;14312;52.614;13.496;2023-08-06T05:07:05;2.15;;;2.05;;
26696;SDS011;14312;52.614;13.496;2023-08-06T05:09:51;2.60;;;2.40;;
26696;SDS011;14312;52.614;13.496;2023-08-06T05:12:37;2.60;;;2.40;;
26696;SDS011;14312;52.614;13.496;2023-08-06T05:15:23;2.10;;;2.00;;
26696;SDS011;14312;52.614;13.496;2023-08-06T05:18:10;2.38;;;2.28;;
26696;SDS011;14312;52.614;13.496;2023-08-06T05:20:57;2.45;;;2.08;;
26696;SDS011;14312;52.614;13.496;2023-08-06T05:23:43;2.80;;;2.60;;
26696;SDS011;14312;52.614;13.496;2023-08-06T05:26:29;2.35;;;2.25;;
26696;SDS011;14312;52.614;13.496;2023-08-06T05:29:16;2.28;;;2.17;;
26696;SDS011;14312;52.614;13.496;2023-08-06T05:32:02;2.40;;;2.20;;
26696;SDS011;14312;52.614;13.496;2023-08-06T05:34:48;2.58;;;2.38;;
26696;SDS011;14312;52.614;13.496;2023-08-06T05:37:34;2.40;;;2.20;;
26696;SDS011;14312;52.614;13.496;2023-08-06T05:40:20;2.30;;;2.10;;
26696;SDS011;14312;52.614;13.496;2023-08-06T05:43:06;2.13;;;2.03;;
26696;SDS011;14312;52.614;13.496;2023-08-06T05:45:52;2.50;;;2.30;;
26696;SDS011;14312;52.614;13.496;2023-08-06T05:48:37;2.45;;;2.30;;
26696;SDS011;14312;52.614;13.496;2023-08-06T05:51:25;2.38;;;2.28;;
26696;SDS011;14312;52.614;13.496;2023-08-06T05:54:12;2.40;;;2.20;;
26696;SDS011;14312;52.614;13.496;2023-08-06T05:56:57;2.35;;;2.15;;
26696;SDS011;14312;52.614;13.496;2023-08-06T05:59:43;2.22;;;2.13;;
26696;SDS011;14312;52.614;13.496;2023-08-06T06:02:29;2.38;;;2.17;;
26696;SDS011;14312;52.614;13.496;2023-08-06T06:05:15;2.15;;;2.05;;
26696;SDS011;14312;52.614;13.496;2023-08-06T06:08:01;2.78;;;2.38;;
26696;SDS011;14312;52.614;13.496;2023-08-06T06:10:47;3.17;;;2.58;;
26696;SDS011;14312;52.614;13.496;2023-08-06T06:13:33;2.60;;;2.40;;
26696;SDS011;14312;52.614;13.496;2023-08-06T06:16:19;2.83;;;2.63;;
26696;SDS011;14312;52.614;13.496;2023-08-06T06:19:05;2.90;;;2.70;;
26696;SDS011;14312;52.614;13.496;2023-08-06T06:21:50;2.75;;;2.42;;
26696;SDS011;14312;52.614;13.496;2023-08-06T06:24:36;2.95;;;2.75;;
26696;SDS011;14312;52.614;13.496;2023-08-06T06:27:22;2.92;;;2.72;;
26696;SDS011;14312;52.614;13.496;2023-08-06T06:30:08;2.90;;;2.70;;
26696;SDS011;14312;52.614;13.496;2023-08-06T06:32:55;2.72;;;2.53;;
26696;SDS011;14312;52.614;13.496;2023-08-06T06:35:40;2.70;;;2.50;;
26696;SDS011;14312;52.614;13.496;2023-08-06T06:38:26;3.47;;;3.17;;
26696;SDS011;14312;52.614;13.496;2023-08-06T06:41:12;2.92;;;2.72;;
26696;SDS011;14312;52.614;13.496;2023-08-06T06:43:58;3.03;;;2.72;;
26696;SDS011;14312;52.614;13.496;2023-08-06T06:46:44;2.90;;;2.70;;
26696;SDS011;14312;52.614;13.496;2023-08-06T06:49:30;2.65;;;2.45;;
26696;SDS011;14312;52.614;13.496;2023-08-06T06:52:16;3.17;;;2.97;;
26696;SDS011;14312;52.614;13.496;2023-08-06T06:55:02;3.20;;;3.00;;
26696;SDS011;14312;52.614;13.496;2023-08-06T06:57:48;2.92;;;2.72;;
26696;SDS011;14312;52.614;13.496;2023-08-06T07:00:37;3.17;;;2.97;;
26696;SDS011;14312;52.614;13.496;2023-08-06T07:03:23;2.92;;;2.72;;
26696;SDS011;14312;52.614;13.496;2023-08-06T07:06:09;3.10;;;2.90;;
26696;SDS011;14312;52.614;13.496;2023-08-06T07:08:55;3.03;;;2.83;;
26696;SDS011;14312;52.614;13.496;2023-08-06T07:11:40;3.03;;;2.83;;
26696;SDS011;14312;52.614;13.496;2023-08-06T07:14:29;3.45;;;3.10;;
26696;SDS011;14312;52.614;13.496;2023-08-06T07:17:14;2.78;;;2.58;;
26696;SDS011;14312;52.614;13.496;2023-08-06T07:20:00;3.40;;;3.10;;
26696;SDS011;14312;52.614;13.496;2023-08-06T07:22:46;3.08;;;2.88;;
26696;SDS011;14312;52.614;13.496;2023-08-06T07:25:33;2.65;;;2.45;;
26696;SDS011;14312;52.614;13.496;2023-08-06T07:28:19;3.00;;;2.80;;
26696;SDS011;14312;52.614;13.496;2023-08-06T07:31:05;3.00;;;2.80;;
26696;SDS011;14312;52.614;13.496;2023-08-06T07:33:51;3.20;;;2.90;;
26696;SDS011;14312;52.614;13.496;2023-08-06T07:36:37;3.10;;;2.90;;
26696;SDS011;14312;52.614;13.496;2023-08-06T07:39:23;3.05;;;2.85;;
26696;SDS011;14312;52.614;13.496;2023-08-06T07:42:10;3.03;;;2.83;;
26696;SDS011;14312;52.614;13.496;2023-08-06T07:44:57;2.90;;;2.70;;
26696;SDS011;14312;52.614;13.496;2023-08-06T07:47:44;2.95;;;2.75;;
26696;SDS011;14312;52.614;13.496;2023-08-06T07:50:30;2.97;;;2.70;;
26696;SDS011;14312;52.614;13.496;2023-08-06T07:53:16;3.03;;;2.65;;
26696;SDS011;14312;52.614;13.496;2023-08-06T07:56:02;2.60;;;2.50;;
26696;SDS011;14312;52.614;13.496;2023-08-06T07:58:48;3.47;;;3.17;;
26696;SDS011;14312;52.614;13.496;2023-08-06T08:01:34;3.03;;;2.83;;
26696;SDS011;14312;52.614;13.496;2023-08-06T08:04:19;2.95;;;2.75;;
26696;SDS011;14312;52.614;13.496;2023-08-06T08:07:06;2.92;;;2.72;;
26696;SDS011;14312;52.614;13.496;2023-08-06T08:09:52;3.47;;;3.17;;
26696;SDS011;14312;52.614;13.496;2023-08-06T08:12:38;3.10;;;2.90;;
26696;SDS011;14312;52.614;13.496;2023-08-06T08:15:24;3.55;;;3.25;;
26696;SDS011;14312;52.614;13.496;2023-08-06T08:18:13;3.10;;;2.88;;
26696;SDS011;14312;52.614;13.496;2023-08-06T08:20:59;3.28;;;3.08;;
26696;SDS011;14312;52.614;13.496;2023-08-06T08:23:45;3.30;;;3.10;;
26696;SDS011;14312;52.614;13.496;2023-08-06T08:26:31;3.20;;;3.00;;
26696;SDS011;14312;52.614;13.496;2023-08-06T08:29:17;3.30;;;3.10;;
26696;SDS011;14312;52.614;13.496;2023-08-06T08:32:03;3.67;;;3.40;;
26696;SDS011;14312;52.614;13.496;2023-08-06T08:34:49;3.17;;;2.97;;
26696;SDS011;14312;52.614;13.496;2023-08-06T08:37:36;3.65;;;3.45;;
26696;SDS011;14312;52.614;13.496;2023-08-06T08:40:22;3.83;;;3.53;;
26696;SDS011;14312;52.614;13.496;2023-08-06T08:43:15;3.83;;;3.53;;
26696;SDS011;14312;52.614;13.496;2023-08-06T08:46:01;4.07;;;3.78;;
26696;SDS011;14312;52.614;13.496;2023-08-06T08:48:49;4.45;;;4.10;;
26696;SDS011;14312;52.614;13.496;2023-08-06T08:51:35;4.20;;;3.80;;
26696;SDS011;14312;52.614;13.496;2023-08-06T08:54:23;3.80;;;3.58;;
26696;SDS011;14312;52.614;13.496;2023-08-06T08:57:09;4.32;;;4.03;;
26696;SDS011;14312;52.614;13.496;2023-08-06T08:59:55;4.15;;;3.80;;
26696;SDS011;14312;52.614;13.496;2023-08-06T09:02:41;4.00;;;3.70;;
26696;SDS011;14312;52.614;13.496;2023-08-06T09:05:28;4.15;;;3.85;;
26696;SDS011;14312;52.614;13.496;2023-08-06T09:08:17;4.32;;;4.03;;
26696;SDS011;14312;52.614;13.496;2023-08-06T09:11:07;4.03;;;3.72;;
26696;SDS011;14312;52.614;13.496;2023-08-06T09:13:55;4.25;;;3.95;;
26696;SDS011;14312;52.614;13.496;2023-08-06T09:16:41;4.50;;;4.20;;
26696;SDS011;14312;52.614;13.496;2023-08-06T09:19:27;4.93;;;4.63;;
26696;SDS011;14312;52.614;13.496;2023-08-06T09:22:14;4.35;;;4.05;;
26696;SDS011;14312;52.614;13.496;2023-08-06T09:25:00;4.32;;;4.03;;
26696;SDS011;14312;52.614;13.496;2023-08-06T09:27:46;4.43;;;4.13;;
26696;SDS011;14312;52.614;13.496;2023-08-06T09:30:33;4.70;;;4.32;;
26696;SDS011;14312;52.614;13.496;2023-08-06T09:33:20;4.68;;;4.38;;
26696;SDS011;14312;52.614;13.496;2023-08-06T09:36:08;4.47;;;4.18;;
26696;SDS011;14312;52.614;13.496;2023-08-06T09:38:56;4.20;;;3.90;;
26696;SDS011;14312;52.614;13.496;2023-08-06T09:41:45;4.85;;;4.40;;
26696;SDS011;14312;52.614;13.496;2023-08-06T09:44:35;4.43;;;4.13;;
26696;SDS011;14312;52.614;13.496;2023-08-06T09:47:21;5.00;;;4.60;;
26696;SDS011;14312;52.614;13.496;2023-08-06T09:50:19;4.85;;;4.43;;
26696;SDS011;14312;52.614;13.496;2023-08-06T09:53:06;4.70;;;4.32;;
26696;SDS011;14312;52.614;13.496;2023-08-06T09:55:53;4.90;;;4.60;;
26696;SDS011;14312;52.614;13.496;2023-08-06T09:58:40;4.65;;;4.25;;
26696;SDS011;14312;52.614;13.496;2023-08-06T10:01:26;4.20;;;3.90;;
26696;SDS011;14312;52.614;13.496;2023-08-06T10:04:13;4.30;;;4.00;;
26696;SDS011;14312;52.614;13.496;2023-08-06T10:07:01;4.20;;;3.90;;
26696;SDS011;14312;52.614;13.496;2023-08-06T10:09:47;4.13;;;3.83;;
26696;SDS011;14312;52.614;13.496;2023-08-06T10:12:44;4.20;;;3.90;;
26696;SDS011;14312;52.614;13.496;2023-08-06T10:15:41;3.42;;;3.15;;
26696;SDS011;14312;52.614;13.496;2023-08-06T10:18:27;3.67;;;3.38;;
26696;SDS011;14312;52.614;13.496;2023-08-06T10:21:14;3.72;;;3.53;;
26696;SDS011;14312;52.614;13.496;2023-08-06T10:24:01;3.35;;;3.15;;
26696;SDS011;14312;52.614;13.496;2023-08-06T10:26:49;3.90;;;3.60;;
26696;SDS011;14312;52.614;13.496;2023-08-06T10:29:35;3.30;;;3.10;;
26696;SDS011;14312;52.614;13.496;2023-08-06T10:32:46;3.45;;;3.25;;
26696;SDS011;14312;52.614;13.496;2023-08-06T10:38:44;3.70;;;3.50;;
26696;SDS011;14312;52.614;13.496;2023-08-06T10:41:31;3.40;;;3.20;;
26696;SDS011;14312;52.614;13.496;2023-08-06T10:44:18;3.78;;;3.47;;
26696;SDS011;14312;52.614;13.496;2023-08-06T10:47:46;4.07;;;3.75;;
26696;SDS011;14312;52.614;13.496;2023-08-06T10:50:14;3.70;;;3.50;;
26696;SDS011;14312;52.614;13.496;2023-08-06T10:53:03;3.95;;;3.65;;
26696;SDS011;14312;52.614;13.496;2023-08-06T10:55:51;3.88;;;3.63;;
26696;SDS011;14312;52.614;13.496;2023-08-06T10:58:37;3.70;;;3.50;;
26696;SDS011;14312;52.614;13.496;2023-08-06T11:01:23;3.78;;;3.50;;
26696;SDS011;14312;52.614;13.496;2023-08-06T11:04:09;8.93;;;8.13;;
26696;SDS011;14312;52.614;13.496;2023-08-06T11:07:01;6.13;;;5.63;;
26696;SDS011;14312;52.614;13.496;2023-08-06T11:09:49;4.53;;;4.10;;
26696;SDS011;14312;52.614;13.496;2023-08-06T11:12:36;4.15;;;3.85;;
26696;SDS011;14312;52.614;13.496;2023-08-06T11:15:22;3.90;;;3.60;;
26696;SDS011;14312;52.614;13.496;2023-08-06T11:18:08;4.53;;;4.15;;
26696;SDS011;14312;52.614;13.496;2023-08-06T11:21:01;4.47;;;4.18;;
26696;SDS011;14312;52.614;13.496;2023-08-06T11:23:48;4.00;;;3.70;;
26696;SDS011;14312;52.614;13.496;2023-08-06T11:26:34;4.05;;;3.75;;
26696;SDS011;14312;52.614;13.496;2023-08-06T11:29:22;3.92;;;3.65;;
26696;SDS011;14312;52.614;13.496;2023-08-06T11:32:09;4.60;;;4.20;;
26696;SDS011;14312;52.614;13.496;2023-08-06T11:34:55;3.58;;;3.35;;
26696;SDS011;14312;52.614;13.496;2023-08-06T11:37:45;3.88;;;3.58;;
26696;SDS011;14312;52.614;13.496;2023-08-06T11:40:32;4.07;;;3.67;;
26696;SDS011;14312;52.614;13.496;2023-08-06T11:43:19;3.72;;;3.50;;
26696;SDS011;14312;52.614;13.496;2023-08-06T11:46:07;3.97;;;3.70;;
26696;SDS011;14312;52.614;13.496;2023-08-06T11:48:54;3.20;;;3.00;;
26696;SDS011;14312;52.614;13.496;2023-08-06T11:51:41;3.55;;;3.35;;
26696;SDS011;14312;52.614;13.496;2023-08-06T11:54:30;3.38;;;3.17;;
26696;SDS011;14312;52.614;13.496;2023-08-06T11:57:19;3.65;;;3.45;;
26696;SDS011;14312;52.614;13.496;2023-08-06T12:00:10;3.80;;;3.50;;
26696;SDS011;14312;52.614;13.496;2023-08-06T12:02:57;3.67;;;3.40;;
26696;SDS011;14312;52.614;13.496;2023-08-06T12:05:43;3.95;;;3.70;;
26696;SDS011;14312;52.614;13.496;2023-08-06T12:08:32;3.95;;;3.65;;
26696;SDS011;14312;52.614;13.496;2023-08-06T12:11:20;4.05;;;3.75;;
26696;SDS011;14312;52.614;13.496;2023-08-06T12:14:07;4.15;;;3.85;;
26696;SDS011;14312;52.614;13.496;2023-08-06T12:16:53;4.13;;;3.83;;
26696;SDS011;14312;52.614;13.496;2023-08-06T12:19:39;4.38;;;3.97;;
26696;SDS011;14312;52.614;13.496;2023-08-06T12:22:25;4.28;;;3.97;;
26696;SDS011;14312;52.614;13.496;2023-08-06T12:25:11;4.15;;;3.85;;
26696;SDS011;14312;52.614;13.496;2023-08-06T12:27:58;4.57;;;4.00;;
26696;SDS011;14312;52.614;13.496;2023-08-06T12:30:44;4.47;;;4.18;;
26696;SDS011;14312;52.614;13.496;2023-08-06T12:33:30;4.57;;;4.28;;
26696;SDS011;14312;52.614;13.496;2023-08-06T12:36:16;4.05;;;3.75;;
26696;SDS011;14312;52.614;13.496;2023-08-06T12:39:02;3.80;;;3.50;;
26696;SDS011;14312;52.614;13.496;2023-08-06T12:41:49;3.85;;;3.55;;
26696;SDS011;14312;52.614;13.496;2023-08-06T12:44:34;4.50;;;4.18;;
26696;SDS011;14312;52.614;13.496;2023-08-06T12:47:20;4.05;;;3.75;;
26696;SDS011;14312;52.614;13.496;2023-08-06T12:50:06;3.92;;;3.63;;
26696;SDS011;14312;52.614;13.496;2023-08-06T12:52:52;3.63;;;3.33;;
26696;SDS011;14312;52.614;13.496;2023-08-06T12:55:38;3.38;;;3.17;;
26696;SDS011;14312;52.614;13.496;2023-08-06T12:58:26;3.65;;;3.38;;
26696;SDS011;14312;52.614;13.496;2023-08-06T13:01:11;3.72;;;3.42;;
26696;SDS011;14312;52.614;13.496;2023-08-06T13:03:57;3.47;;;3.17;;
26696;SDS011;14312;52.614;13.496;2023-08-06T13:06:44;3.90;;;3.60;;
26696;SDS011;14312;52.614;13.496;2023-08-06T13:09:29;4.18;;;3.40;;
26696;SDS011;14312;52.614;13.496;2023-08-06T13:12:16;3.47;;;3.20;;
26696;SDS011;14312;52.614;13.496;2023-08-06T13:15:04;3.28;;;2.97;;
26696;SDS011;14312;52.614;13.496;2023-08-06T13:17:50;3.20;;;2.92;;
26696;SDS011;14312;52.614;13.496;2023-08-06T13:20:38;3.30;;;3.00;;
26696;SDS011;14312;52.614;13.496;2023-08-06T13:23:25;3.25;;;3.03;;
26696;SDS011;14312;52.614;13.496;2023-08-06T13:26:11;3.10;;;2.90;;
26696;SDS011;14312;52.614;13.496;2023-08-06T13:28:58;3.55;;;2.97;;
26696;SDS011;14312;52.614;13.496;2023-08-06T13:31:44;2.97;;;2.78;;
26696;SDS011;14312;52.614;13.496;2023-08-06T13:34:30;2.97;;;2.78;;
26696;SDS011;14312;52.614;13.496;2023-08-06T13:37:16;2.92;;;2.72;;
26696;SDS011;14312;52.614;13.496;2023-08-06T13:40:02;2.75;;;2.55;;
26696;SDS011;14312;52.614;13.496;2023-08-06T13:42:48;2.67;;;2.47;;
26696;SDS011;14312;52.614;13.496;2023-08-06T13:45:34;2.67;;;2.45;;
26696;SDS011;14312;52.614;13.496;2023-08-06T13:48:21;2.60;;;2.40;;
26696;SDS011;14312;52.614;13.496;2023-08-06T13:51:07;2.33;;;2.17;;
26696;SDS011;14312;52.614;13.496;2023-08-06T13:53:54;2.35;;;2.15;;
26696;SDS011;14312;52.614;13.496;2023-08-06T13:56:39;2.60;;;2.40;;
26696;SDS011;14312;52.614;13.496;2023-08-06T13:59:26;2.45;;;2.22;;
26696;SDS011;14312;52.614;13.496;2023-08-06T14:02:12;2.50;;;2.30;;
26696;SDS011;14312;52.614;13.496;2023-08-06T14:04:58;2.40;;;2.20;;
26696;SDS011;14312;52.614;13.496;2023-08-06T14:07:44;2.00;;;1.90;;
26696;SDS011;14312;52.614;13.496;2023-08-06T14:10:30;2.17;;;2.00;;
26696;SDS011;14312;52.614;13.496;2023-08-06T14:13:16;1.90;;;1.80;;
26696;SDS011;14312;52.614;13.496;2023-08-06T14:16:02;2.20;;;2.00;;
26696;SDS011;14312;52.614;13.496;2023-08-06T14:18:48;1.73;;;1.63;;
26696;SDS011;14312;52.614;13.496;2023-08-06T14:21:34;1.92;;;1.83;;
26696;SDS011;14312;52.614;13.496;2023-08-06T14:24:20;1.75;;;1.65;;
26696;SDS011;14312;52.614;13.496;2023-08-06T14:27:07;1.90;;;1.80;;
26696;SDS011;14312;52.614;13.496;2023-08-06T14:29:53;1.90;;;1.80;;
26696;SDS011;14312;52.614;13.496;2023-08-06T14:32:39;2.00;;;1.80;;
26696;SDS011;14312;52.614;13.496;2023-08-06T14:35:25;2.72;;;1.70;;
26696;SDS011;14312;52.614;13.496;2023-08-06T14:38:11;2.03;;;1.92;;
26696;SDS011;14312;52.614;13.496;2023-08-06T14:40:57;2.30;;;2.00;;
26696;SDS011;14312;52.614;13.496;2023-08-06T14:43:42;1.77;;;1.67;;
26696;SDS011;14312;52.614;13.496;2023-08-06T14:46:28;1.73;;;1.63;;
26696;SDS011;14312;52.614;13.496;2023-08-06T14:49:14;1.80;;;1.70;;
26696;SDS011;14312;52.614;13.496;2023-08-06T14:52:00;2.03;;;1.90;;
26696;SDS011;14312;52.614;13.496;2023-08-06T14:54:47;1.70;;;1.60;;
26696;SDS011;14312;52.614;13.496;2023-08-06T14:57:33;1.70;;;1.60;;
26696;SDS011;14312;52.614;13.496;2023-08-06T15:00:19;2.05;;;1.55;;
26696;SDS011;14312;52.614;13.496;2023-08-06T15:03:05;1.63;;;1.52;;
26696;SDS011;14312;52.614;13.496;2023-08-06T15:05:51;2.05;;;1.90;;
26696;SDS011;14312;52.614;13.496;2023-08-06T15:08:37;1.73;;;1.63;;
26696;SDS011;14312;52.614;13.496;2023-08-06T15:11:23;1.70;;;1.60;;
26696;SDS011;14312;52.614;13.496;2023-08-06T15:14:10;1.83;;;1.70;;
26696;SDS011;14312;52.614;13.496;2023-08-06T15:16:56;1.92;;;1.60;;
26696;SDS011;14312;52.614;13.496;2023-08-06T15:19:42;3.22;;;1.80;;
26696;SDS011;14312;52.614;13.496;2023-08-06T15:22:28;1.63;;;1.45;;
26696;SDS011;14312;52.614;13.496;2023-08-06T15:25:17;1.60;;;1.50;;
26696;SDS011;14312;52.614;13.496;2023-08-06T15:28:03;1.88;;;1.58;;
26696;SDS011;14312;52.614;13.496;2023-08-06T15:30:49;2.00;;;1.85;;
26696;SDS011;14312;52.614;13.496;2023-08-06T15:33:36;1.65;;;1.55;;
26696;SDS011;14312;52.614;13.496;2023-08-06T15:36:22;1.75;;;1.65;;
26696;SDS011;14312;52.614;13.496;2023-08-06T15:39:08;1.95;;;1.40;;
26696;SDS011;14312;52.614;13.496;2023-08-06T15:41:54;1.85;;;1.48;;
26696;SDS011;14312;52.614;13.496;2023-08-06T15:44:40;2.15;;;1.40;;
26696;SDS011;14312;52.614;13.496;2023-08-06T15:47:25;1.80;;;1.60;;
26696;SDS011;14312;52.614;13.496;2023-08-06T15:50:11;1.83;;;1.50;;
26696;SDS011;14312;52.614;13.496;2023-08-06T15:52:57;1.77;;;1.48;;
26696;SDS011;14312;52.614;13.496;2023-08-06T15:55:43;1.83;;;1.60;;
26696;SDS011;14312;52.614;13.496;2023-08-06T15:58:31;1.50;;;1.40;;
26696;SDS011;14312;52.614;13.496;2023-08-06T16:01:17;1.55;;;1.45;;
26696;SDS011;14312;52.614;13.496;2023-08-06T16:04:03;1.70;;;1.60;;
26696;SDS011;14312;52.614;13.496;2023-08-06T16:06:50;1.27;;;1.17;;
26696;SDS011;14312;52.614;13.496;2023-08-06T16:09:35;1.73;;;1.50;;
26696;SDS011;14312;52.614;13.496;2023-08-06T16:12:21;1.70;;;1.60;;
26696;SDS011;14312;52.614;13.496;2023-08-06T16:15:07;1.60;;;1.50;;
26696;SDS011;14312;52.614;13.496;2023-08-06T16:17:54;1.70;;;1.60;;
26696;SDS011;14312;52.614;13.496;2023-08-06T16:20:42;1.83;;;1.60;;
26696;SDS011;14312;52.614;13.496;2023-08-06T16:23:29;1.75;;;1.65;;
26696;SDS011;14312;52.614;13.496;2023-08-06T16:26:15;1.70;;;1.52;;
26696;SDS011;14312;52.614;13.496;2023-08-06T16:29:00;1.60;;;1.50;;
26696;SDS011;14312;52.614;13.496;2023-08-06T16:31:46;1.67;;;1.52;;